Osijek, Croatia
Current Conditions -  °F | °C
As of 9:00 PM on Thursday 25 Dec 2014 (Local Time) from LDOS Reporting Station
Clear Clear  
Wind Chill: 43°   Ceiling: Unl
Heat Index: 46°   Visibility: 6mi
Dew Point: 43°   Wind: 7mph
Humidity: 87%   Direction: 40°NE
Pressure: 30.15"   Gusts: NA
Location:  45.55°N, 18.68°E
Report Text: LDOS 251900Z 04006KT CAVOK 08/06 Q1021
Loading
Personal Weather Stations






























Interactive Weather Map New forecast layout! Learn more

10-Day Weather Forecast

Advertisements
Track Severe Weather on mobile